createdAt,value
2023-03-29T00:00:43.741Z,101019.84
2023-03-29T00:03:47.387Z,101036.88
2023-03-29T00:06:50.573Z,101042.72
2023-03-29T00:09:53.122Z,101016.94
2023-03-29T00:12:55.575Z,101051.72
2023-03-29T00:15:57.970Z,101047.28
2023-03-29T00:19:00.678Z,101050.66
2023-03-29T00:22:06.258Z,101017.28
2023-03-29T00:25:11.840Z,101013.88
2023-03-29T00:28:14.858Z,101042.28
2023-03-29T00:31:18.418Z,100983.88
2023-03-29T00:34:22.337Z,101013.06
2023-03-29T00:37:30.007Z,101013.16
2023-03-29T00:40:34.342Z,101038.91
2023-03-29T00:43:57.326Z,101048.38
2023-03-29T00:46:59.727Z,101050.03
2023-03-29T00:50:07.917Z,101021.66
2023-03-29T00:53:33.851Z,101016.66
2023-03-29T00:56:40.539Z,101009.00
2023-03-29T00:59:45.142Z,101001.41
2023-03-29T01:02:54.485Z,101006.94
2023-03-29T01:06:04.984Z,101011.84
2023-03-29T01:09:12.675Z,101016.53
2023-03-29T01:12:20.881Z,101033.28
2023-03-29T01:15:26.605Z,101027.94
2023-03-29T01:18:31.472Z,101035.59
2023-03-29T01:21:44.627Z,101040.56
2023-03-29T01:25:07.195Z,101008.63
2023-03-29T01:28:17.460Z,101049.50
2023-03-29T01:31:44.227Z,101007.34
2023-03-29T01:34:58.597Z,101048.41
2023-03-29T01:38:13.395Z,101039.88
2023-03-29T01:41:16.582Z,101047.56
2023-03-29T01:44:23.418Z,101010.03
2023-03-29T01:47:34.856Z,101043.44
2023-03-29T01:50:46.698Z,101014.41
2023-03-29T01:53:54.988Z,101017.81
2023-03-29T01:56:59.150Z,101044.59
2023-03-29T02:00:08.256Z,101038.66
2023-03-29T02:03:17.486Z,101029.09
2023-03-29T02:06:23.897Z,101063.41
2023-03-29T02:09:29.225Z,101048.81
2023-03-29T02:12:32.099Z,101057.34
2023-03-29T02:15:36.652Z,101067.59
2023-03-29T02:18:41.302Z,101066.78
2023-03-29T02:21:51.833Z,101062.38
2023-03-29T02:24:59.200Z,101062.41
2023-03-29T02:28:02.010Z,101038.31
2023-03-29T02:31:15.762Z,101076.66
2023-03-29T02:34:28.197Z,101086.81
2023-03-29T02:37:34.486Z,101060.41
2023-03-29T02:40:39.401Z,101087.09
2023-03-29T02:43:43.118Z,101099.00
2023-03-29T02:46:49.368Z,101057.34
2023-03-29T02:49:52.377Z,101060.03
2023-03-29T02:53:04.738Z,101069.09
2023-03-29T02:56:09.190Z,101096.16
2023-03-29T02:59:12.594Z,101061.94
2023-03-29T03:02:18.023Z,101092.56
2023-03-29T03:05:29.636Z,101062.41
2023-03-29T03:08:32.302Z,101062.16
2023-03-29T03:11:34.754Z,101073.31
2023-03-29T03:14:37.213Z,101097.34
2023-03-29T03:17:40.230Z,101105.66
2023-03-29T03:20:47.041Z,101118.13
2023-03-29T03:23:49.798Z,101070.97
2023-03-29T03:26:52.222Z,101080.06
2023-03-29T03:29:54.964Z,101071.41
2023-03-29T03:33:15.946Z,101108.91
2023-03-29T03:36:18.394Z,101075.09
2023-03-29T03:39:21.601Z,101106.13
2023-03-29T03:42:24.327Z,101116.13
2023-03-29T03:45:27.110Z,101083.59
2023-03-29T03:48:44.571Z,101122.16
2023-03-29T03:51:54.142Z,101124.63
2023-03-29T03:54:56.632Z,101104.94
2023-03-29T03:58:18.140Z,101143.47
2023-03-29T04:01:20.601Z,101143.84
2023-03-29T04:04:34.889Z,101144.44
2023-03-29T04:07:44.662Z,101138.00
2023-03-29T04:11:07.794Z,101134.50
2023-03-29T04:14:13.065Z,101179.66
2023-03-29T04:17:39.902Z,101141.03
2023-03-29T04:21:02.935Z,101181.66
2023-03-29T04:24:08.076Z,101190.78
2023-03-29T04:27:13.292Z,101152.91
2023-03-29T04:30:16.964Z,101172.38
2023-03-29T04:33:42.667Z,101155.22
2023-03-29T04:36:46.483Z,101187.78
2023-03-29T04:39:55.062Z,101193.06
2023-03-29T04:43:00.097Z,101201.47
2023-03-29T04:46:03.486Z,101197.19
2023-03-29T04:49:29.090Z,101206.03
2023-03-29T04:52:33.324Z,101201.41
2023-03-29T04:55:37.942Z,101204.72
2023-03-29T04:58:44.353Z,101211.16
2023-03-29T05:01:47.502Z,101171.59
2023-03-29T05:04:50.573Z,101206.53
2023-03-29T05:07:54.941Z,101183.34
2023-03-29T05:11:02.750Z,101192.56
2023-03-29T05:14:07.409Z,101173.34
2023-03-29T05:17:10.218Z,101176.22
2023-03-29T05:20:13.356Z,101196.41
2023-03-29T05:23:19.248Z,101174.63
2023-03-29T05:26:53.068Z,101200.06
2023-03-29T05:29:56.121Z,101189.84
2023-03-29T05:33:11.534Z,101170.88
2023-03-29T05:36:16.443Z,101165.41
2023-03-29T05:39:23.409Z,101179.66
2023-03-29T05:42:26.274Z,101195.63
2023-03-29T05:45:42.472Z,101186.69
2023-03-29T05:48:45.513Z,101172.25
2023-03-29T05:51:48.184Z,101191.69
2023-03-29T05:54:50.793Z,101202.66
2023-03-29T05:57:53.448Z,101156.56
2023-03-29T06:01:04.747Z,101207.78
2023-03-29T06:04:31.912Z,101179.75
2023-03-29T06:08:07.485Z,101198.22
2023-03-29T06:11:30.581Z,101213.91
2023-03-29T06:14:41.917Z,101229.53
2023-03-29T06:18:06.597Z,101206.06
2023-03-29T06:21:11.054Z,101222.19
2023-03-29T06:24:14.131Z,101221.00
2023-03-29T06:27:21.918Z,101209.88
2023-03-29T06:30:25.004Z,101227.84
2023-03-29T06:33:30.906Z,101228.13
2023-03-29T06:36:50.958Z,101223.00
2023-03-29T06:39:56.988Z,101232.50
2023-03-29T06:43:10.229Z,101241.72
2023-03-29T06:46:29.299Z,101202.75
2023-03-29T06:49:35.679Z,101236.09
2023-03-29T06:52:47.058Z,101233.59
2023-03-29T06:55:51.919Z,101220.13
2023-03-29T06:59:18.131Z,101243.13
2023-03-29T07:02:43.739Z,101223.22
2023-03-29T07:05:48.030Z,101214.41
2023-03-29T07:08:53.595Z,101211.59
2023-03-29T07:12:10.197Z,101248.63
2023-03-29T07:15:16.168Z,101245.31
2023-03-29T07:18:47.728Z,101234.28
2023-03-29T07:22:00.275Z,101255.50
2023-03-29T07:25:16.431Z,101254.16
2023-03-29T07:28:21.354Z,101236.66
2023-03-29T07:31:23.924Z,101255.94
2023-03-29T07:34:33.073Z,101253.06
2023-03-29T07:37:37.510Z,101200.03
2023-03-29T07:40:42.139Z,101262.06
2023-03-29T07:44:09.080Z,101236.81
2023-03-29T07:47:12.695Z,101262.72
2023-03-29T07:50:17.015Z,101231.44
2023-03-29T07:53:19.674Z,101257.78
2023-03-29T07:56:22.377Z,101272.28
2023-03-29T07:59:37.946Z,101238.44
2023-03-29T08:02:52.566Z,101271.72
2023-03-29T08:05:55.213Z,101260.19
2023-03-29T08:08:57.631Z,101240.69
2023-03-29T08:12:00.305Z,101239.34
2023-03-29T08:15:09.664Z,101256.59
2023-03-29T08:18:15.563Z,101233.34
2023-03-29T08:21:18.049Z,101262.44
2023-03-29T08:24:24.386Z,101247.34
2023-03-29T08:27:32.317Z,101237.91
2023-03-29T08:30:35.326Z,101238.97
2023-03-29T08:33:39.449Z,101251.03
2023-03-29T08:37:04.193Z,101210.31
2023-03-29T08:40:21.604Z,101258.44
2023-03-29T08:43:45.011Z,101233.16
2023-03-29T08:46:54.901Z,101261.66
2023-03-29T08:50:10.819Z,101241.41
2023-03-29T08:53:35.545Z,101250.53
2023-03-29T08:56:47.861Z,101254.47
2023-03-29T09:00:01.813Z,101232.19
2023-03-29T09:03:16.075Z,101246.69
2023-03-29T09:06:20.807Z,101234.41
2023-03-29T09:09:32.793Z,101233.63
2023-03-29T09:13:03.877Z,101245.03
2023-03-29T09:16:25.239Z,101242.34
2023-03-29T09:20:02.277Z,101241.88
2023-03-29T09:23:19.950Z,101249.38
2023-03-29T09:26:52.848Z,101238.25
2023-03-29T09:30:29.012Z,101241.03
2023-03-29T09:33:47.656Z,101183.59
2023-03-29T09:37:07.225Z,101227.97
2023-03-29T09:40:18.058Z,101233.78
2023-03-29T09:43:42.979Z,101205.69
2023-03-29T09:46:58.979Z,101212.28
2023-03-29T09:50:23.055Z,101231.00
2023-03-29T09:53:32.844Z,101228.91
2023-03-29T09:56:50.363Z,101216.19
2023-03-29T09:59:56.406Z,101210.94
2023-03-29T10:03:00.152Z,101230.63
2023-03-29T10:06:14.607Z,101211.22
2023-03-29T10:09:24.378Z,101225.97
2023-03-29T10:12:33.466Z,101196.41
2023-03-29T10:15:37.086Z,101190.53
2023-03-29T10:18:41.753Z,101195.00
2023-03-29T10:21:45.039Z,101197.34
2023-03-29T10:24:49.918Z,101186.31
2023-03-29T10:27:55.523Z,101183.84
2023-03-29T10:31:00.952Z,101199.25
2023-03-29T10:34:05.694Z,101176.47
2023-03-29T10:37:10.012Z,101136.94
2023-03-29T10:40:33.380Z,101197.97
2023-03-29T10:43:44.174Z,101192.94
2023-03-29T10:46:46.647Z,101189.78
2023-03-29T10:49:58.837Z,101190.44
2023-03-29T10:53:03.265Z,101183.97
2023-03-29T10:56:07.647Z,101179.56
2023-03-29T10:59:22.883Z,101187.16
2023-03-29T11:02:53.608Z,101176.47
2023-03-29T11:06:02.202Z,101154.78
2023-03-29T11:09:52.777Z,101172.84
2023-03-29T11:13:13.851Z,101163.81
2023-03-29T11:16:42.136Z,101161.44
2023-03-29T11:20:19.632Z,101137.06
2023-03-29T11:23:50.869Z,101151.69
2023-03-29T11:27:02.013Z,101150.34
2023-03-29T11:30:21.808Z,101143.06
2023-03-29T11:33:36.227Z,101139.94
2023-03-29T11:36:50.576Z,101134.69
2023-03-29T11:40:22.774Z,101139.03
2023-03-29T11:43:34.185Z,101088.25
2023-03-29T11:46:39.125Z,101104.44
2023-03-29T11:49:49.301Z,101088.25
2023-03-29T11:52:57.507Z,101114.97
2023-03-29T11:56:10.217Z,101114.25
2023-03-29T11:59:36.453Z,101115.75
2023-03-29T12:03:07.777Z,101113.59
2023-03-29T12:06:26.794Z,101109.44
2023-03-29T12:09:37.701Z,101115.03
2023-03-29T12:12:56.487Z,101106.19
2023-03-29T12:16:22.021Z,101105.19
2023-03-29T12:19:31.275Z,101082.44
2023-03-29T12:22:34.081Z,101079.34
2023-03-29T12:26:13.981Z,101093.09
2023-03-29T12:29:53.781Z,101085.09
2023-03-29T12:33:47.615Z,101080.25
2023-03-29T12:37:17.632Z,101055.97
2023-03-29T12:40:22.986Z,101081.19
2023-03-29T12:43:45.837Z,101045.00
2023-03-29T12:47:13.921Z,101055.31
2023-03-29T12:50:28.377Z,101042.25
2023-03-29T12:53:52.560Z,101071.31
2023-03-29T12:57:18.352Z,101056.53
2023-03-29T13:00:26.077Z,101052.66
2023-03-29T13:03:35.530Z,101055.34
2023-03-29T13:06:47.012Z,101051.88
2023-03-29T13:09:55.453Z,101052.47
2023-03-29T13:13:11.496Z,101055.31
2023-03-29T13:16:19.475Z,101049.63
2023-03-29T13:19:57.156Z,101031.81
2023-03-29T13:23:30.341Z,101032.84
2023-03-29T13:26:49.765Z,101036.28
2023-03-29T13:30:23.260Z,101033.41
2023-03-29T13:33:34.597Z,101029.63
2023-03-29T13:37:04.723Z,101026.63
2023-03-29T13:40:43.250Z,101015.69
2023-03-29T13:43:45.769Z,101030.22
2023-03-29T13:46:49.986Z,100995.78
2023-03-29T13:49:54.957Z,100998.94
2023-03-29T13:53:27.942Z,100997.34
2023-03-29T13:56:38.602Z,100967.34
2023-03-29T14:00:17.905Z,101015.63
2023-03-29T14:03:26.296Z,100985.16
2023-03-29T14:06:34.372Z,101012.41
2023-03-29T14:09:43.935Z,101000.72
2023-03-29T14:12:47.086Z,100982.81
2023-03-29T14:15:53.014Z,100979.97
2023-03-29T14:18:59.765Z,100972.72
2023-03-29T14:22:07.559Z,100993.69
2023-03-29T14:25:19.318Z,100987.88
2023-03-29T14:28:28.112Z,100977.94
2023-03-29T14:31:36.345Z,100990.78
2023-03-29T14:34:40.192Z,100990.94
2023-03-29T14:37:42.845Z,100964.34
2023-03-29T14:40:45.672Z,100982.47
2023-03-29T14:43:48.270Z,100968.81
2023-03-29T14:46:50.826Z,100970.09
2023-03-29T14:49:56.133Z,100967.91
2023-03-29T14:53:00.685Z,100970.84
2023-03-29T14:56:03.946Z,100946.59
2023-03-29T14:59:22.779Z,100936.56
2023-03-29T15:02:26.982Z,100961.00
2023-03-29T15:05:36.347Z,100952.44
2023-03-29T15:08:48.199Z,100974.75
2023-03-29T15:12:02.260Z,100938.03
2023-03-29T15:15:07.743Z,100949.88
2023-03-29T15:18:15.987Z,100926.81
2023-03-29T15:21:22.152Z,100937.09
2023-03-29T15:24:33.058Z,100923.63
2023-03-29T15:27:42.386Z,100945.53
2023-03-29T15:30:47.768Z,100921.03
2023-03-29T15:34:13.555Z,100919.84
2023-03-29T15:37:16.203Z,100915.69
2023-03-29T15:40:25.426Z,100937.59
2023-03-29T15:43:27.930Z,100938.50
2023-03-29T15:46:30.285Z,100931.97
2023-03-29T15:49:32.767Z,100938.09
2023-03-29T15:52:35.371Z,100934.38
2023-03-29T15:55:44.655Z,100920.53
2023-03-29T15:58:47.522Z,100936.84
2023-03-29T16:01:50.714Z,100916.88
2023-03-29T16:04:53.534Z,100942.13
2023-03-29T16:07:56.000Z,100924.63
2023-03-29T16:10:58.393Z,100954.06
2023-03-29T16:14:00.878Z,100943.63
2023-03-29T16:17:03.997Z,100924.50
2023-03-29T16:20:07.556Z,100914.63
2023-03-29T16:23:10.052Z,100937.84
2023-03-29T16:26:14.080Z,100941.34
2023-03-29T16:29:17.490Z,100931.22
2023-03-29T16:32:20.105Z,100932.78
2023-03-29T16:35:27.873Z,100952.44
2023-03-29T16:38:30.760Z,100944.09
2023-03-29T16:41:33.689Z,100951.06
2023-03-29T16:44:36.285Z,100952.09
2023-03-29T16:47:39.545Z,100952.38
2023-03-29T16:50:42.020Z,100948.22
2023-03-29T16:53:44.557Z,100917.66
2023-03-29T16:56:47.248Z,100948.22
2023-03-29T16:59:49.733Z,100909.41
2023-03-29T17:02:52.811Z,100939.88
2023-03-29T17:05:55.494Z,100902.59
2023-03-29T17:08:58.979Z,100940.47
2023-03-29T17:12:02.015Z,100932.97
2023-03-29T17:15:06.425Z,100910.97
2023-03-29T17:18:09.339Z,100919.69
2023-03-29T17:21:11.915Z,100926.63
2023-03-29T17:24:14.487Z,100950.69
2023-03-29T17:27:17.053Z,100930.22
2023-03-29T17:30:19.830Z,100926.97
2023-03-29T17:33:26.219Z,100952.72
2023-03-29T17:36:28.940Z,100923.97
2023-03-29T17:39:32.143Z,100963.47
2023-03-29T17:42:34.542Z,100925.91
2023-03-29T17:45:36.868Z,100962.00
2023-03-29T17:48:39.279Z,100961.22
2023-03-29T17:51:41.845Z,100945.78
2023-03-29T17:54:44.746Z,100962.06
2023-03-29T17:57:48.983Z,100974.03
2023-03-29T18:00:51.799Z,100932.28
2023-03-29T18:03:54.824Z,100947.66
2023-03-29T18:06:57.780Z,100952.72
2023-03-29T18:10:00.411Z,100959.63
2023-03-29T18:13:03.105Z,100987.03
2023-03-29T18:16:07.626Z,100927.31
2023-03-29T18:19:10.800Z,100958.91
2023-03-29T18:22:13.547Z,100989.59
2023-03-29T18:25:18.278Z,100891.44
2023-03-29T18:28:21.466Z,100993.00
2023-03-29T18:31:24.202Z,100993.06
2023-03-29T18:34:27.842Z,100964.00
2023-03-29T18:37:33.790Z,100993.09
2023-03-29T18:40:36.559Z,100999.03
2023-03-29T18:43:41.271Z,100974.31
2023-03-29T18:46:43.906Z,101009.28
2023-03-29T18:49:47.294Z,100997.31
2023-03-29T18:52:50.305Z,101010.13
2023-03-29T18:55:53.033Z,101003.28
2023-03-29T18:58:55.482Z,101013.56
2023-03-29T19:01:58.230Z,101023.81
2023-03-29T19:05:01.570Z,100983.66
2023-03-29T19:08:05.799Z,101034.91
2023-03-29T19:11:11.463Z,100979.41
2023-03-29T19:14:14.479Z,101017.84
2023-03-29T19:17:17.517Z,101022.09
2023-03-29T19:20:21.187Z,101011.03
2023-03-29T19:23:27.131Z,100999.94
2023-03-29T19:26:30.655Z,101012.75
2023-03-29T19:29:33.241Z,101034.97
2023-03-29T19:32:36.031Z,101009.34
2023-03-29T19:35:38.841Z,101030.72
2023-03-29T19:38:41.723Z,101033.28
2023-03-29T19:41:44.624Z,100996.56
2023-03-29T19:44:47.491Z,101035.91
2023-03-29T19:47:57.227Z,101026.44
2023-03-29T19:51:03.561Z,101005.09
2023-03-29T19:54:07.099Z,101021.31
2023-03-29T19:57:09.683Z,101023.91
2023-03-29T20:00:14.188Z,100989.75
2023-03-29T20:03:17.891Z,101007.63
2023-03-29T20:06:21.568Z,100980.31
2023-03-29T20:09:24.191Z,101007.63
2023-03-29T20:12:27.916Z,100980.31
2023-03-29T20:15:30.653Z,101012.78
2023-03-29T20:18:33.384Z,100999.97
2023-03-29T20:21:38.409Z,100989.75
2023-03-29T20:24:42.249Z,100985.50
2023-03-29T20:27:45.376Z,101012.84
2023-03-29T20:30:51.178Z,101018.81
2023-03-29T20:33:53.702Z,100980.38
2023-03-29T20:37:00.760Z,100989.78
2023-03-29T20:40:05.468Z,101012.84
2023-03-29T20:43:13.336Z,101000.03
2023-03-29T20:46:18.368Z,101006.03
2023-03-29T20:49:26.653Z,100974.44
2023-03-29T20:52:29.085Z,100989.78
2023-03-29T20:55:33.394Z,101004.34
2023-03-29T20:58:35.867Z,100953.91
2023-03-29T21:01:42.316Z,100977.00
2023-03-29T21:04:48.605Z,100969.31
2023-03-29T21:07:51.093Z,100981.25
2023-03-29T21:10:53.464Z,100965.91
2023-03-29T21:13:55.957Z,100990.66
2023-03-29T21:16:58.752Z,100994.91
2023-03-29T21:20:02.585Z,101002.59
2023-03-29T21:23:05.127Z,100998.34
2023-03-29T21:26:07.901Z,100991.50
2023-03-29T21:29:10.922Z,100995.78
2023-03-29T21:32:13.374Z,101014.53
2023-03-29T21:35:16.045Z,101005.13
2023-03-29T21:38:18.591Z,100998.31
2023-03-29T21:41:21.967Z,100942.72
2023-03-29T21:44:24.505Z,100988.03
2023-03-29T21:47:26.931Z,100977.72
2023-03-29T21:50:31.987Z,100980.31
2023-03-29T21:53:36.419Z,101012.78
2023-03-29T21:56:38.988Z,101011.94
2023-03-29T21:59:41.462Z,100990.56
2023-03-29T22:02:45.896Z,100979.44
2023-03-29T22:05:59.880Z,100969.25
2023-03-29T22:09:03.208Z,100988.03
2023-03-29T22:12:05.824Z,100995.69
2023-03-29T22:15:12.035Z,100964.03
2023-03-29T22:18:14.681Z,100994.81
2023-03-29T22:21:28.489Z,100994.78
2023-03-29T22:24:31.061Z,101000.69
2023-03-29T22:27:33.452Z,100996.44
2023-03-29T22:30:36.509Z,101003.25
2023-03-29T22:33:39.737Z,100976.78
2023-03-29T22:36:42.090Z,100975.94
2023-03-29T22:39:44.524Z,100997.31
2023-03-29T22:42:46.997Z,100976.75
2023-03-29T22:45:49.393Z,100997.28
2023-03-29T22:48:52.437Z,100994.72
2023-03-29T22:51:55.087Z,101001.56
2023-03-29T22:54:57.712Z,100986.16
2023-03-29T22:58:00.112Z,100991.28
2023-03-29T23:01:03.267Z,100993.84
2023-03-29T23:04:06.193Z,100955.31
2023-03-29T23:07:08.617Z,100950.19
2023-03-29T23:10:11.655Z,100983.59
2023-03-29T23:13:20.020Z,100957.00
2023-03-29T23:16:22.517Z,100990.31
2023-03-29T23:19:25.306Z,101003.06
2023-03-29T23:22:28.678Z,100997.91
2023-03-29T23:25:31.469Z,101003.06
2023-03-29T23:28:34.901Z,100996.25
2023-03-29T23:31:37.891Z,100992.06
2023-03-29T23:34:40.522Z,100984.41
2023-03-29T23:37:43.520Z,100975.00
2023-03-29T23:41:00.278Z,100931.34
2023-03-29T23:44:03.708Z,100999.59
2023-03-29T23:47:07.102Z,100966.16
2023-03-29T23:50:13.229Z,100975.25
2023-03-29T23:53:15.883Z,100970.84
2023-03-29T23:56:18.309Z,100967.22
2023-03-29T23:59:22.733Z,100998.94
